sensor_id;sensor_type;location;lat;lon;timestamp;temperature;humidity
20204;DHT22;10261;49.010;12.034;2023-08-01T00:00:22;18.70;99.90
20204;DHT22;10261;49.010;12.034;2023-08-01T00:01:24;18.70;99.90
20204;DHT22;10261;49.010;12.034;2023-08-01T00:02:27;18.70;99.90
20204;DHT22;10261;49.010;12.034;2023-08-01T00:03:30;18.70;99.90
20204;DHT22;10261;49.010;12.034;2023-08-01T00:04:33;18.70;99.90
20204;DHT22;10261;49.010;12.034;2023-08-01T00:05:35;18.60;99.90
20204;DHT22;10261;49.010;12.034;2023-08-01T00:06:39;18.70;99.90
20204;DHT22;10261;49.010;12.034;2023-08-01T00:07:41;18.70;99.90
20204;DHT22;10261;49.010;12.034;2023-08-01T00:08:44;18.70;99.90
20204;DHT22;10261;49.010;12.034;2023-08-01T00:09:46;18.60;99.90
20204;DHT22;10261;49.010;12.034;2023-08-01T00:10:50;18.60;99.90
20204;DHT22;10261;49.010;12.034;2023-08-01T00:11:52;18.60;99.90
20204;DHT22;10261;49.010;12.034;2023-08-01T00:13:58;18.60;99.90
20204;DHT22;10261;49.010;12.034;2023-08-01T00:15:03;18.60;99.90
20204;DHT22;10261;49.010;12.034;2023-08-01T00:16:05;18.60;99.90
20204;DHT22;10261;49.010;12.034;2023-08-01T00:17:09;18.60;99.90
20204;DHT22;10261;49.010;12.034;2023-08-01T00:19:15;18.60;99.90
20204;DHT22;10261;49.010;12.034;2023-08-01T00:20:16;18.70;99.90
20204;DHT22;10261;49.010;12.034;2023-08-01T00:21:18;18.60;99.90
20204;DHT22;10261;49.010;12.034;2023-08-01T00:22:21;18.70;99.90
20204;DHT22;10261;49.010;12.034;2023-08-01T00:23:23;18.60;99.90
20204;DHT22;10261;49.010;12.034;2023-08-01T00:24:26;18.60;99.90
20204;DHT22;10261;49.010;12.034;2023-08-01T00:25:28;18.70;99.90
20204;DHT22;10261;49.010;12.034;2023-08-01T00:26:32;18.60;99.90
20204;DHT22;10261;49.010;12.034;2023-08-01T00:27:34;18.60;99.90
20204;DHT22;10261;49.010;12.034;2023-08-01T00:28:41;18.60;99.90
20204;DHT22;10261;49.010;12.034;2023-08-01T00:31:48;18.50;99.90
20204;DHT22;10261;49.010;12.034;2023-08-01T00:32:51;18.60;99.90
20204;DHT22;10261;49.010;12.034;2023-08-01T00:33:53;18.60;99.90
20204;DHT22;10261;49.010;12.034;2023-08-01T00:35:58;18.60;99.90
20204;DHT22;10261;49.010;12.034;2023-08-01T00:37:01;18.60;99.90
20204;DHT22;10261;49.010;12.034;2023-08-01T00:38:03;18.60;99.90
20204;DHT22;10261;49.010;12.034;2023-08-01T00:39:06;18.60;99.90
20204;DHT22;10261;49.010;12.034;2023-08-01T00:40:09;18.60;99.90
20204;DHT22;10261;49.010;12.034;2023-08-01T00:41:11;18.60;99.90
20204;DHT22;10261;49.010;12.034;2023-08-01T00:42:15;18.60;99.90
20204;DHT22;10261;49.010;12.034;2023-08-01T00:43:17;18.50;99.90
20204;DHT22;10261;49.010;12.034;2023-08-01T00:44:20;18.60;99.90
20204;DHT22;10261;49.010;12.034;2023-08-01T00:45:22;18.50;99.90
20204;DHT22;10261;49.010;12.034;2023-08-01T00:46:26;18.50;99.90
20204;DHT22;10261;49.010;12.034;2023-08-01T00:47:28;18.60;99.90
20204;DHT22;10261;49.010;12.034;2023-08-01T00:48:32;18.60;99.90
20204;DHT22;10261;49.010;12.034;2023-08-01T00:49:34;18.50;99.90
20204;DHT22;10261;49.010;12.034;2023-08-01T00:50:38;18.60;99.90
20204;DHT22;10261;49.010;12.034;2023-08-01T00:51:41;18.60;99.90
20204;DHT22;10261;49.010;12.034;2023-08-01T00:52:45;18.50;99.90
20204;DHT22;10261;49.010;12.034;2023-08-01T00:53:47;18.60;99.90
20204;DHT22;10261;49.010;12.034;2023-08-01T00:54:49;18.60;99.90
20204;DHT22;10261;49.010;12.034;2023-08-01T00:55:52;18.60;99.90
20204;DHT22;10261;49.010;12.034;2023-08-01T00:56:55;18.60;99.90
20204;DHT22;10261;49.010;12.034;2023-08-01T00:57:59;18.60;99.90
20204;DHT22;10261;49.010;12.034;2023-08-01T00:59:02;18.60;99.90
20204;DHT22;10261;49.010;12.034;2023-08-01T01:00:04;18.60;99.90
20204;DHT22;10261;49.010;12.034;2023-08-01T01:01:07;18.60;99.90
20204;DHT22;10261;49.010;12.034;2023-08-01T01:02:09;18.60;99.90
20204;DHT22;10261;49.010;12.034;2023-08-01T01:03:14;18.60;99.90
20204;DHT22;10261;49.010;12.034;2023-08-01T01:04:16;18.60;99.90
20204;DHT22;10261;49.010;12.034;2023-08-01T01:05:19;18.60;99.90
20204;DHT22;10261;49.010;12.034;2023-08-01T01:06:25;18.50;99.90
20204;DHT22;10261;49.010;12.034;2023-08-01T01:07:31;18.60;99.90
20204;DHT22;10261;49.010;12.034;2023-08-01T01:08:34;18.60;99.90
20204;DHT22;10261;49.010;12.034;2023-08-01T01:09:36;18.50;99.90
20204;DHT22;10261;49.010;12.034;2023-08-01T01:10:39;18.60;99.90
20204;DHT22;10261;49.010;12.034;2023-08-01T01:11:40;18.60;99.90
20204;DHT22;10261;49.010;12.034;2023-08-01T01:12:43;18.60;99.90
20204;DHT22;10261;49.010;12.034;2023-08-01T01:13:47;18.60;99.90
20204;DHT22;10261;49.010;12.034;2023-08-01T01:14:49;18.60;99.90
20204;DHT22;10261;49.010;12.034;2023-08-01T01:15:51;18.60;99.90
20204;DHT22;10261;49.010;12.034;2023-08-01T01:16:54;18.60;99.90
20204;DHT22;10261;49.010;12.034;2023-08-01T01:17:57;18.60;99.90
20204;DHT22;10261;49.010;12.034;2023-08-01T01:19:00;18.50;99.90
20204;DHT22;10261;49.010;12.034;2023-08-01T01:20:02;18.60;99.90
20204;DHT22;10261;49.010;12.034;2023-08-01T01:21:06;18.60;99.90
20204;DHT22;10261;49.010;12.034;2023-08-01T01:22:09;18.60;99.90
20204;DHT22;10261;49.010;12.034;2023-08-01T01:23:13;18.60;99.90
20204;DHT22;10261;49.010;12.034;2023-08-01T01:24:16;18.60;99.90
20204;DHT22;10261;49.010;12.034;2023-08-01T01:25:22;18.60;99.90
20204;DHT22;10261;49.010;12.034;2023-08-01T01:26:24;18.60;99.90
20204;DHT22;10261;49.010;12.034;2023-08-01T01:27:27;18.60;99.90
20204;DHT22;10261;49.010;12.034;2023-08-01T01:28:30;18.60;99.90
20204;DHT22;10261;49.010;12.034;2023-08-01T01:29:34;18.60;99.90
20204;DHT22;10261;49.010;12.034;2023-08-01T01:30:36;18.60;99.90
20204;DHT22;10261;49.010;12.034;2023-08-01T01:31:39;18.60;99.90
20204;DHT22;10261;49.010;12.034;2023-08-01T01:32:42;18.60;99.90
20204;DHT22;10261;49.010;12.034;2023-08-01T01:33:44;18.60;99.90
20204;DHT22;10261;49.010;12.034;2023-08-01T01:34:47;18.60;99.90
20204;DHT22;10261;49.010;12.034;2023-08-01T01:35:49;18.60;99.90
20204;DHT22;10261;49.010;12.034;2023-08-01T01:36:54;18.60;99.90
20204;DHT22;10261;49.010;12.034;2023-08-01T01:37:56;18.60;99.90
20204;DHT22;10261;49.010;12.034;2023-08-01T01:39:00;18.60;99.90
20204;DHT22;10261;49.010;12.034;2023-08-01T01:40:02;18.60;99.90
20204;DHT22;10261;49.010;12.034;2023-08-01T01:41:05;18.60;99.90
20204;DHT22;10261;49.010;12.034;2023-08-01T01:42:07;18.60;99.90
20204;DHT22;10261;49.010;12.034;2023-08-01T01:43:10;18.60;99.90
20204;DHT22;10261;49.010;12.034;2023-08-01T01:44:12;18.70;99.90
20204;DHT22;10261;49.010;12.034;2023-08-01T01:45:15;18.60;99.90
20204;DHT22;10261;49.010;12.034;2023-08-01T01:46:17;18.60;99.90
20204;DHT22;10261;49.010;12.034;2023-08-01T01:47:20;18.60;99.90
20204;DHT22;10261;49.010;12.034;2023-08-01T01:49:25;18.60;99.90
20204;DHT22;10261;49.010;12.034;2023-08-01T01:51:31;18.60;99.90
20204;DHT22;10261;49.010;12.034;2023-08-01T01:52:34;18.60;99.90
20204;DHT22;10261;49.010;12.034;2023-08-01T01:53:37;18.50;99.90
20204;DHT22;10261;49.010;12.034;2023-08-01T01:54:39;18.50;99.90
20204;DHT22;10261;49.010;12.034;2023-08-01T01:55:42;18.50;99.90
20204;DHT22;10261;49.010;12.034;2023-08-01T01:57:48;18.60;99.90
20204;DHT22;10261;49.010;12.034;2023-08-01T01:58:50;18.60;99.90
20204;DHT22;10261;49.010;12.034;2023-08-01T01:59:53;18.60;99.90
20204;DHT22;10261;49.010;12.034;2023-08-01T02:00:54;18.50;99.90
20204;DHT22;10261;49.010;12.034;2023-08-01T02:01:57;18.60;99.90
20204;DHT22;10261;49.010;12.034;2023-08-01T02:02:59;18.60;99.90
20204;DHT22;10261;49.010;12.034;2023-08-01T02:04:04;18.60;99.90
20204;DHT22;10261;49.010;12.034;2023-08-01T02:05:06;18.50;99.90
20204;DHT22;10261;49.010;12.034;2023-08-01T02:06:09;18.60;99.90
20204;DHT22;10261;49.010;12.034;2023-08-01T02:07:11;18.60;99.90
20204;DHT22;10261;49.010;12.034;2023-08-01T02:08:17;18.60;99.90
20204;DHT22;10261;49.010;12.034;2023-08-01T02:09:19;18.50;99.90
20204;DHT22;10261;49.010;12.034;2023-08-01T02:10:22;18.60;99.90
20204;DHT22;10261;49.010;12.034;2023-08-01T02:11:23;18.60;99.90
20204;DHT22;10261;49.010;12.034;2023-08-01T02:12:26;18.60;99.90
20204;DHT22;10261;49.010;12.034;2023-08-01T02:13:29;18.50;99.90
20204;DHT22;10261;49.010;12.034;2023-08-01T02:14:35;18.50;99.90
20204;DHT22;10261;49.010;12.034;2023-08-01T02:17:43;18.50;99.90
20204;DHT22;10261;49.010;12.034;2023-08-01T02:18:46;18.50;99.90
20204;DHT22;10261;49.010;12.034;2023-08-01T02:19:47;18.50;99.90
20204;DHT22;10261;49.010;12.034;2023-08-01T02:20:50;18.50;99.90
20204;DHT22;10261;49.010;12.034;2023-08-01T02:21:53;18.60;99.90
20204;DHT22;10261;49.010;12.034;2023-08-01T02:22:56;18.50;99.90
20204;DHT22;10261;49.010;12.034;2023-08-01T02:23:59;18.60;99.90
20204;DHT22;10261;49.010;12.034;2023-08-01T02:25:03;18.50;99.90
20204;DHT22;10261;49.010;12.034;2023-08-01T02:26:05;18.60;99.90
20204;DHT22;10261;49.010;12.034;2023-08-01T02:28:12;18.60;99.90
20204;DHT22;10261;49.010;12.034;2023-08-01T02:31:20;18.60;99.90
20204;DHT22;10261;49.010;12.034;2023-08-01T02:32:23;18.60;99.90
20204;DHT22;10261;49.010;12.034;2023-08-01T02:33:25;18.50;99.90
20204;DHT22;10261;49.010;12.034;2023-08-01T02:34:28;18.50;99.90
20204;DHT22;10261;49.010;12.034;2023-08-01T02:35:30;18.50;99.90
20204;DHT22;10261;49.010;12.034;2023-08-01T02:36:32;18.50;99.90
20204;DHT22;10261;49.010;12.034;2023-08-01T02:37:34;18.50;99.90
20204;DHT22;10261;49.010;12.034;2023-08-01T02:38:37;18.50;99.90
20204;DHT22;10261;49.010;12.034;2023-08-01T02:39:41;18.50;99.90
20204;DHT22;10261;49.010;12.034;2023-08-01T02:40:43;18.50;99.90
20204;DHT22;10261;49.010;12.034;2023-08-01T02:41:45;18.50;99.90
20204;DHT22;10261;49.010;12.034;2023-08-01T02:42:48;18.50;99.90
20204;DHT22;10261;49.010;12.034;2023-08-01T02:44:52;18.50;99.90
20204;DHT22;10261;49.010;12.034;2023-08-01T02:45:55;18.50;99.90
20204;DHT22;10261;49.010;12.034;2023-08-01T02:46:57;18.50;99.90
20204;DHT22;10261;49.010;12.034;2023-08-01T02:50:06;18.50;99.90
20204;DHT22;10261;49.010;12.034;2023-08-01T02:52:12;18.50;99.90
20204;DHT22;10261;49.010;12.034;2023-08-01T02:53:13;18.50;99.90
20204;DHT22;10261;49.010;12.034;2023-08-01T02:54:15;18.50;99.90
20204;DHT22;10261;49.010;12.034;2023-08-01T02:55:20;18.50;99.90
20204;DHT22;10261;49.010;12.034;2023-08-01T02:56:22;18.50;99.90
20204;DHT22;10261;49.010;12.034;2023-08-01T02:59:30;18.50;99.90
20204;DHT22;10261;49.010;12.034;2023-08-01T03:00:37;18.50;99.90
20204;DHT22;10261;49.010;12.034;2023-08-01T03:01:40;18.50;99.90
20204;DHT22;10261;49.010;12.034;2023-08-01T03:02:43;18.50;99.90
20204;DHT22;10261;49.010;12.034;2023-08-01T03:03:46;18.50;99.90
20204;DHT22;10261;49.010;12.034;2023-08-01T03:04:48;18.50;99.90
20204;DHT22;10261;49.010;12.034;2023-08-01T03:05:52;18.50;99.90
20204;DHT22;10261;49.010;12.034;2023-08-01T03:06:54;18.50;99.90
20204;DHT22;10261;49.010;12.034;2023-08-01T03:07:57;18.50;99.90
20204;DHT22;10261;49.010;12.034;2023-08-01T03:08:59;18.50;99.90
20204;DHT22;10261;49.010;12.034;2023-08-01T03:10:03;18.50;99.90
20204;DHT22;10261;49.010;12.034;2023-08-01T03:11:06;18.50;99.90
20204;DHT22;10261;49.010;12.034;2023-08-01T03:13:11;18.50;99.90
20204;DHT22;10261;49.010;12.034;2023-08-01T03:14:14;18.50;99.90
20204;DHT22;10261;49.010;12.034;2023-08-01T03:15:18;18.50;99.90
20204;DHT22;10261;49.010;12.034;2023-08-01T03:16:20;18.50;99.90
20204;DHT22;10261;49.010;12.034;2023-08-01T03:17:23;18.40;99.90
20204;DHT22;10261;49.010;12.034;2023-08-01T03:18:25;18.50;99.90
20204;DHT22;10261;49.010;12.034;2023-08-01T03:19:28;18.50;99.90
20204;DHT22;10261;49.010;12.034;2023-08-01T03:21:34;18.50;99.90
20204;DHT22;10261;49.010;12.034;2023-08-01T03:22:37;18.50;99.90
20204;DHT22;10261;49.010;12.034;2023-08-01T03:24:42;18.40;99.90
20204;DHT22;10261;49.010;12.034;2023-08-01T03:25:45;18.40;99.90
20204;DHT22;10261;49.010;12.034;2023-08-01T03:26:48;18.50;99.90
20204;DHT22;10261;49.010;12.034;2023-08-01T03:27:51;18.50;99.90
20204;DHT22;10261;49.010;12.034;2023-08-01T03:28:53;18.50;99.90
20204;DHT22;10261;49.010;12.034;2023-08-01T03:29:56;18.50;99.90
20204;DHT22;10261;49.010;12.034;2023-08-01T03:30:58;18.40;99.90
20204;DHT22;10261;49.010;12.034;2023-08-01T03:32:01;18.40;99.90
20204;DHT22;10261;49.010;12.034;2023-08-01T03:33:03;18.50;99.90
20204;DHT22;10261;49.010;12.034;2023-08-01T03:36:15;18.50;99.90
20204;DHT22;10261;49.010;12.034;2023-08-01T03:37:17;18.50;99.90
20204;DHT22;10261;49.010;12.034;2023-08-01T03:39:22;18.40;99.90
20204;DHT22;10261;49.010;12.034;2023-08-01T03:40:25;18.50;99.90
20204;DHT22;10261;49.010;12.034;2023-08-01T03:41:27;18.50;99.90
20204;DHT22;10261;49.010;12.034;2023-08-01T03:42:31;18.50;99.90
20204;DHT22;10261;49.010;12.034;2023-08-01T03:43:33;18.40;99.90
20204;DHT22;10261;49.010;12.034;2023-08-01T03:44:36;18.50;99.90
20204;DHT22;10261;49.010;12.034;2023-08-01T03:45:38;18.50;99.90
20204;DHT22;10261;49.010;12.034;2023-08-01T03:46:41;18.50;99.90
20204;DHT22;10261;49.010;12.034;2023-08-01T03:47:44;18.50;99.90
20204;DHT22;10261;49.010;12.034;2023-08-01T03:49:49;18.50;99.90
20204;DHT22;10261;49.010;12.034;2023-08-01T03:50:51;18.50;99.90
20204;DHT22;10261;49.010;12.034;2023-08-01T03:51:53;18.50;99.90
20204;DHT22;10261;49.010;12.034;2023-08-01T03:52:55;18.50;99.90
20204;DHT22;10261;49.010;12.034;2023-08-01T03:53:58;18.50;99.90
20204;DHT22;10261;49.010;12.034;2023-08-01T03:55:14;18.50;99.90
20204;DHT22;10261;49.010;12.034;2023-08-01T03:57:20;18.50;99.90
20204;DHT22;10261;49.010;12.034;2023-08-01T03:58:24;18.50;99.90
20204;DHT22;10261;49.010;12.034;2023-08-01T03:59:26;18.50;99.90
20204;DHT22;10261;49.010;12.034;2023-08-01T04:00:29;18.50;99.90
20204;DHT22;10261;49.010;12.034;2023-08-01T04:01:34;18.50;99.90
20204;DHT22;10261;49.010;12.034;2023-08-01T04:02:37;18.50;99.90
20204;DHT22;10261;49.010;12.034;2023-08-01T04:03:39;18.50;99.90
20204;DHT22;10261;49.010;12.034;2023-08-01T04:04:42;18.50;99.90
20204;DHT22;10261;49.010;12.034;2023-08-01T04:06:47;18.50;99.90
20204;DHT22;10261;49.010;12.034;2023-08-01T04:07:49;18.40;99.90
20204;DHT22;10261;49.010;12.034;2023-08-01T04:08:52;18.40;99.90
20204;DHT22;10261;49.010;12.034;2023-08-01T04:09:54;18.40;99.90
20204;DHT22;10261;49.010;12.034;2023-08-01T04:10:56;18.40;99.90
20204;DHT22;10261;49.010;12.034;2023-08-01T04:11:59;18.50;99.90
20204;DHT22;10261;49.010;12.034;2023-08-01T04:13:01;18.50;99.90
20204;DHT22;10261;49.010;12.034;2023-08-01T04:14:05;18.40;99.90
20204;DHT22;10261;49.010;12.034;2023-08-01T04:15:08;18.40;99.90
20204;DHT22;10261;49.010;12.034;2023-08-01T04:16:11;18.50;99.90
20204;DHT22;10261;49.010;12.034;2023-08-01T04:17:13;18.50;99.90
20204;DHT22;10261;49.010;12.034;2023-08-01T04:18:16;18.40;99.90
20204;DHT22;10261;49.010;12.034;2023-08-01T04:19:17;18.10;99.90
20204;DHT22;10261;49.010;12.034;2023-08-01T04:21:22;17.70;99.90
20204;DHT22;10261;49.010;12.034;2023-08-01T04:22:26;17.80;99.90
20204;DHT22;10261;49.010;12.034;2023-08-01T04:23:27;17.90;99.90
20204;DHT22;10261;49.010;12.034;2023-08-01T04:25:33;18.10;99.90
20204;DHT22;10261;49.010;12.034;2023-08-01T04:26:36;18.10;99.90
20204;DHT22;10261;49.010;12.034;2023-08-01T04:27:39;18.20;99.90
20204;DHT22;10261;49.010;12.034;2023-08-01T04:29:45;18.20;99.90
20204;DHT22;10261;49.010;12.034;2023-08-01T04:30:51;18.30;99.90
20204;DHT22;10261;49.010;12.034;2023-08-01T04:31:54;18.20;99.90
20204;DHT22;10261;49.010;12.034;2023-08-01T04:32:56;18.30;99.90
20204;DHT22;10261;49.010;12.034;2023-08-01T04:33:59;18.30;99.90
20204;DHT22;10261;49.010;12.034;2023-08-01T04:35:01;18.30;99.90
20204;DHT22;10261;49.010;12.034;2023-08-01T04:36:04;18.30;99.90
20204;DHT22;10261;49.010;12.034;2023-08-01T04:37:06;18.20;99.90
20204;DHT22;10261;49.010;12.034;2023-08-01T04:39:13;18.20;99.90
20204;DHT22;10261;49.010;12.034;2023-08-01T04:40:16;18.20;99.90
20204;DHT22;10261;49.010;12.034;2023-08-01T04:43:23;18.30;99.90
20204;DHT22;10261;49.010;12.034;2023-08-01T04:44:26;18.20;99.90
20204;DHT22;10261;49.010;12.034;2023-08-01T04:45:29;18.30;99.90
20204;DHT22;10261;49.010;12.034;2023-08-01T04:46:32;18.20;99.90
20204;DHT22;10261;49.010;12.034;2023-08-01T04:47:35;18.20;99.90
20204;DHT22;10261;49.010;12.034;2023-08-01T04:48:38;18.20;99.90
20204;DHT22;10261;49.010;12.034;2023-08-01T04:50:43;18.20;99.90
20204;DHT22;10261;49.010;12.034;2023-08-01T04:51:48;18.20;99.90
20204;DHT22;10261;49.010;12.034;2023-08-01T04:52:51;18.20;99.90
20204;DHT22;10261;49.010;12.034;2023-08-01T04:53:53;18.20;99.90
20204;DHT22;10261;49.010;12.034;2023-08-01T04:54:55;18.20;99.90
20204;DHT22;10261;49.010;12.034;2023-08-01T04:55:57;18.20;99.90
20204;DHT22;10261;49.010;12.034;2023-08-01T04:58:02;18.10;99.90
20204;DHT22;10261;49.010;12.034;2023-08-01T04:59:05;18.20;99.90
20204;DHT22;10261;49.010;12.034;2023-08-01T05:00:09;18.20;99.90
20204;DHT22;10261;49.010;12.034;2023-08-01T05:01:14;18.10;99.90
20204;DHT22;10261;49.010;12.034;2023-08-01T05:02:16;18.10;99.90
20204;DHT22;10261;49.010;12.034;2023-08-01T05:03:19;18.10;99.90
20204;DHT22;10261;49.010;12.034;2023-08-01T05:07:30;18.10;99.90
20204;DHT22;10261;49.010;12.034;2023-08-01T05:08:33;18.00;99.90
20204;DHT22;10261;49.010;12.034;2023-08-01T05:09:36;18.10;99.90
20204;DHT22;10261;49.010;12.034;2023-08-01T05:10:37;18.10;99.90
20204;DHT22;10261;49.010;12.034;2023-08-01T05:11:39;18.10;99.90
20204;DHT22;10261;49.010;12.034;2023-08-01T05:13:45;18.10;99.90
20204;DHT22;10261;49.010;12.034;2023-08-01T05:14:48;18.00;99.90
20204;DHT22;10261;49.010;12.034;2023-08-01T05:16:54;18.10;99.90
20204;DHT22;10261;49.010;12.034;2023-08-01T05:18:59;18.00;99.90
20204;DHT22;10261;49.010;12.034;2023-08-01T05:20:01;18.00;99.90
20204;DHT22;10261;49.010;12.034;2023-08-01T05:21:06;18.00;99.90
20204;DHT22;10261;49.010;12.034;2023-08-01T05:22:07;18.00;99.90
20204;DHT22;10261;49.010;12.034;2023-08-01T05:23:10;18.10;99.90
20204;DHT22;10261;49.010;12.034;2023-08-01T05:24:12;18.00;99.90
20204;DHT22;10261;49.010;12.034;2023-08-01T05:25:15;18.00;99.90
20204;DHT22;10261;49.010;12.034;2023-08-01T05:26:17;18.00;99.90
20204;DHT22;10261;49.010;12.034;2023-08-01T05:27:20;18.00;99.90
20204;DHT22;10261;49.010;12.034;2023-08-01T05:28:22;18.00;99.90
20204;DHT22;10261;49.010;12.034;2023-08-01T05:29:25;18.00;99.90
20204;DHT22;10261;49.010;12.034;2023-08-01T05:30:27;18.00;99.90
20204;DHT22;10261;49.010;12.034;2023-08-01T05:32:33;18.00;99.90
20204;DHT22;10261;49.010;12.034;2023-08-01T05:34:40;18.00;99.90
20204;DHT22;10261;49.010;12.034;2023-08-01T05:36:45;18.00;99.90
20204;DHT22;10261;49.010;12.034;2023-08-01T05:37:48;18.10;99.90
20204;DHT22;10261;49.010;12.034;2023-08-01T05:39:53;18.00;99.90
20204;DHT22;10261;49.010;12.034;2023-08-01T05:40:54;18.00;99.90
20204;DHT22;10261;49.010;12.034;2023-08-01T05:41:57;18.00;99.90
20204;DHT22;10261;49.010;12.034;2023-08-01T05:42:59;18.00;99.90
20204;DHT22;10261;49.010;12.034;2023-08-01T05:44:03;18.00;99.90
20204;DHT22;10261;49.010;12.034;2023-08-01T05:45:06;18.00;99.90
20204;DHT22;10261;49.010;12.034;2023-08-01T05:46:10;18.00;99.90
20204;DHT22;10261;49.010;12.034;2023-08-01T05:47:12;18.00;99.90
20204;DHT22;10261;49.010;12.034;2023-08-01T05:48:16;18.00;99.90
20204;DHT22;10261;49.010;12.034;2023-08-01T05:49:18;18.00;99.90
20204;DHT22;10261;49.010;12.034;2023-08-01T05:51:25;18.00;99.90
20204;DHT22;10261;49.010;12.034;2023-08-01T05:52:28;18.00;99.90
20204;DHT22;10261;49.010;12.034;2023-08-01T05:53:30;18.00;99.90
20204;DHT22;10261;49.010;12.034;2023-08-01T05:55:35;18.10;99.90
20204;DHT22;10261;49.010;12.034;2023-08-01T05:56:36;18.00;99.90
20204;DHT22;10261;49.010;12.034;2023-08-01T05:57:41;18.10;99.90
20204;DHT22;10261;49.010;12.034;2023-08-01T05:58:43;18.00;99.90
20204;DHT22;10261;49.010;12.034;2023-08-01T05:59:46;18.00;99.90
20204;DHT22;10261;49.010;12.034;2023-08-01T06:00:48;18.10;99.90
20204;DHT22;10261;49.010;12.034;2023-08-01T06:01:51;18.10;99.90
20204;DHT22;10261;49.010;12.034;2023-08-01T06:02:53;18.10;99.90
20204;DHT22;10261;49.010;12.034;2023-08-01T06:03:58;18.10;99.90
20204;DHT22;10261;49.010;12.034;2023-08-01T06:05:00;18.00;99.90
20204;DHT22;10261;49.010;12.034;2023-08-01T06:07:05;18.10;99.90
20204;DHT22;10261;49.010;12.034;2023-08-01T06:08:08;18.10;99.90
20204;DHT22;10261;49.010;12.034;2023-08-01T06:09:10;18.10;99.90
20204;DHT22;10261;49.010;12.034;2023-08-01T06:10:12;18.00;99.90
20204;DHT22;10261;49.010;12.034;2023-08-01T06:11:15;18.00;99.90
20204;DHT22;10261;49.010;12.034;2023-08-01T06:12:17;18.00;99.90
20204;DHT22;10261;49.010;12.034;2023-08-01T06:13:20;18.10;99.90
20204;DHT22;10261;49.010;12.034;2023-08-01T06:14:23;18.10;99.90
20204;DHT22;10261;49.010;12.034;2023-08-01T06:15:26;18.10;99.90
20204;DHT22;10261;49.010;12.034;2023-08-01T06:16:28;18.00;99.90
20204;DHT22;10261;49.010;12.034;2023-08-01T06:18:34;18.10;99.90
20204;DHT22;10261;49.010;12.034;2023-08-01T06:19:38;18.10;99.90
20204;DHT22;10261;49.010;12.034;2023-08-01T06:20:40;18.10;99.90
20204;DHT22;10261;49.010;12.034;2023-08-01T06:21:43;18.00;99.90
20204;DHT22;10261;49.010;12.034;2023-08-01T06:22:46;18.10;99.90
20204;DHT22;10261;49.010;12.034;2023-08-01T06:24:51;18.10;99.90
20204;DHT22;10261;49.010;12.034;2023-08-01T06:26:56;18.10;99.90
20204;DHT22;10261;49.010;12.034;2023-08-01T06:27:59;18.10;99.90
20204;DHT22;10261;49.010;12.034;2023-08-01T06:30:06;18.10;99.90
20204;DHT22;10261;49.010;12.034;2023-08-01T06:31:08;18.10;99.90
20204;DHT22;10261;49.010;12.034;2023-08-01T06:32:11;18.10;99.90
20204;DHT22;10261;49.010;12.034;2023-08-01T06:33:14;18.10;99.90
20204;DHT22;10261;49.010;12.034;2023-08-01T06:34:17;18.10;99.90
20204;DHT22;10261;49.010;12.034;2023-08-01T06:35:21;18.10;99.90
20204;DHT22;10261;49.010;12.034;2023-08-01T06:36:23;18.00;99.90
20204;DHT22;10261;49.010;12.034;2023-08-01T06:37:25;18.00;99.90
20204;DHT22;10261;49.010;12.034;2023-08-01T06:39:30;18.10;99.90
20204;DHT22;10261;49.010;12.034;2023-08-01T06:40:33;18.10;99.90
20204;DHT22;10261;49.010;12.034;2023-08-01T06:41:35;18.10;99.90
20204;DHT22;10261;49.010;12.034;2023-08-01T06:42:38;18.10;99.90
20204;DHT22;10261;49.010;12.034;2023-08-01T06:43:40;18.10;99.90
20204;DHT22;10261;49.010;12.034;2023-08-01T06:44:43;18.10;99.90
20204;DHT22;10261;49.010;12.034;2023-08-01T06:45:45;18.10;99.90
20204;DHT22;10261;49.010;12.034;2023-08-01T06:46:48;18.10;99.90
20204;DHT22;10261;49.010;12.034;2023-08-01T06:47:50;18.10;99.90
20204;DHT22;10261;49.010;12.034;2023-08-01T06:49:55;18.10;99.90
20204;DHT22;10261;49.010;12.034;2023-08-01T06:50:59;18.10;99.90
20204;DHT22;10261;49.010;12.034;2023-08-01T06:53:04;18.10;99.90
20204;DHT22;10261;49.010;12.034;2023-08-01T06:54:07;18.20;99.90
20204;DHT22;10261;49.010;12.034;2023-08-01T06:55:10;18.20;99.90
20204;DHT22;10261;49.010;12.034;2023-08-01T06:56:12;18.10;99.90
20204;DHT22;10261;49.010;12.034;2023-08-01T06:57:15;18.20;99.90
20204;DHT22;10261;49.010;12.034;2023-08-01T06:58:16;18.10;99.90
20204;DHT22;10261;49.010;12.034;2023-08-01T06:59:19;18.10;99.90
20204;DHT22;10261;49.010;12.034;2023-08-01T07:00:21;18.20;99.90
20204;DHT22;10261;49.010;12.034;2023-08-01T07:01:24;18.20;99.90
20204;DHT22;10261;49.010;12.034;2023-08-01T07:02:26;18.20;99.90
20204;DHT22;10261;49.010;12.034;2023-08-01T07:05:35;18.20;99.90
20204;DHT22;10261;49.010;12.034;2023-08-01T07:06:40;18.20;99.90
20204;DHT22;10261;49.010;12.034;2023-08-01T07:07:44;18.20;99.90
20204;DHT22;10261;49.010;12.034;2023-08-01T07:08:46;18.10;99.90
20204;DHT22;10261;49.010;12.034;2023-08-01T07:09:49;18.20;99.90
20204;DHT22;10261;49.010;12.034;2023-08-01T07:11:54;18.20;99.90
20204;DHT22;10261;49.010;12.034;2023-08-01T07:12:56;18.10;99.90
20204;DHT22;10261;49.010;12.034;2023-08-01T07:13:59;18.10;99.90
20204;DHT22;10261;49.010;12.034;2023-08-01T07:15:03;18.10;99.90
20204;DHT22;10261;49.010;12.034;2023-08-01T07:16:06;18.20;99.90
20204;DHT22;10261;49.010;12.034;2023-08-01T07:17:08;18.10;99.90
20204;DHT22;10261;49.010;12.034;2023-08-01T07:18:11;18.20;99.90
20204;DHT22;10261;49.010;12.034;2023-08-01T07:19:13;18.20;99.90
20204;DHT22;10261;49.010;12.034;2023-08-01T07:21:18;18.30;99.90
20204;DHT22;10261;49.010;12.034;2023-08-01T07:22:22;18.20;99.90
20204;DHT22;10261;49.010;12.034;2023-08-01T07:23:24;18.20;99.90
20204;DHT22;10261;49.010;12.034;2023-08-01T07:24:27;18.30;99.90
20204;DHT22;10261;49.010;12.034;2023-08-01T07:25:30;18.30;99.90
20204;DHT22;10261;49.010;12.034;2023-08-01T07:26:33;18.20;99.90
20204;DHT22;10261;49.010;12.034;2023-08-01T07:27:35;18.20;99.90
20204;DHT22;10261;49.010;12.034;2023-08-01T07:28:39;18.30;99.90
20204;DHT22;10261;49.010;12.034;2023-08-01T07:29:41;18.30;99.90
20204;DHT22;10261;49.010;12.034;2023-08-01T07:30:44;18.30;99.90
20204;DHT22;10261;49.010;12.034;2023-08-01T07:32:49;18.30;99.90
20204;DHT22;10261;49.010;12.034;2023-08-01T07:33:51;18.30;99.90